Time;durP1;ratioP1;P1;durP2;ratioP2;P2;SDS_P1;SDS_P2;PMS_P1;PMS_P2;Temp;Humidity;BMP_temperature;BMP_pressure;BME280_temperature;BME280_humidity;BME280_pressure;Samples;Min_cycle;Max_cycle;Signal;HPM_P1;HPM_P2
2022/06/04 00:04:31;;;;;;;0.57;0.28;;;15.30;99.90;;;;;;20708462;28;20046;-41
2022/06/04 00:24:54;;;;;;;1.90;0.43;;;15.00;99.90;;;;;;20690105;28;20041;-41
2022/06/04 00:34:55;;;;;;;1.35;0.70;;;14.90;99.90;;;;;;20703493;28;20050;-41
2022/06/04 00:45:21;;;;;;;1.20;0.43;;;14.80;99.90;;;;;;20694544;28;20057;-41
2022/06/04 00:55:23;;;;;;;1.98;0.70;;;14.70;99.90;;;;;;20704090;28;21444;-41
2022/06/04 01:05:43;;;;;;;2.25;0.77;;;14.60;99.90;;;;;;20706587;28;20041;-41
2022/06/04 01:16:22;;;;;;;3.22;1.30;;;14.50;99.90;;;;;;20648027;28;20124;-41
2022/06/04 01:26:38;;;;;;;;;;;14.40;99.90;;;;;;20627810;28;20394;-40
2022/06/04 01:36:49;;;;;;;1.90;0.90;;;14.30;99.90;;;;;;20629099;28;20285;-41
2022/06/04 01:46:55;;;;;;;1.70;0.73;;;14.10;99.90;;;;;;20628837;28;20049;-40
2022/06/04 01:57:09;;;;;;;2.50;0.85;;;14.00;99.90;;;;;;20627543;28;20414;-41
2022/06/04 02:07:31;;;;;;;2.40;0.90;;;13.80;99.90;;;;;;20627065;28;20234;-41
2022/06/04 02:17:33;;;;;;;1.10;0.50;;;13.90;99.90;;;;;;20623197;28;20046;-41
2022/06/04 02:27:35;;;;;;;4.30;1.85;;;13.70;99.90;;;;;;20625203;28;20045;-40
2022/06/04 02:37:45;;;;;;;3.45;1.38;;;13.70;99.90;;;;;;20628336;28;20053;-41
2022/06/04 02:47:53;;;;;;;2.13;0.90;;;13.60;99.90;;;;;;20647094;28;20580;-41
2022/06/04 02:57:59;;;;;;;1.83;0.90;;;13.60;99.90;;;;;;20646947;28;21136;-41
2022/06/04 03:08:03;;;;;;;3.08;1.23;;;13.40;99.90;;;;;;20651547;28;20221;-41
2022/06/04 03:18:04;;;;;;;2.92;1.20;;;13.40;99.90;;;;;;20647817;28;20283;-41
2022/06/04 03:28:07;;;;;;;8.07;1.55;;;13.30;99.90;;;;;;20635448;28;20042;-41
2022/06/04 03:38:08;;;;;;;2.28;1.13;;;13.20;99.90;;;;;;20633356;28;20687;-41
2022/06/04 03:48:09;;;;;;;2.10;1.25;;;13.10;99.90;;;;;;20640537;28;21493;-41
2022/06/04 03:58:11;;;;;;;2.03;0.70;;;13.00;99.90;;;;;;20641391;28;20065;-41
2022/06/04 04:08:12;;;;;;;2.30;0.95;;;13.00;99.90;;;;;;20635548;28;20038;-41
2022/06/04 04:18:13;;;;;;;3.13;1.58;;;13.10;99.90;;;;;;20634776;28;20069;-41
2022/06/04 04:28:14;;;;;;;3.60;1.15;;;13.00;99.90;;;;;;20632942;28;20053;-41
2022/06/04 04:38:21;;;;;;;1.83;0.80;;;13.00;99.90;;;;;;20637781;28;20064;-41
2022/06/04 04:48:22;;;;;;;2.25;0.90;;;13.20;99.90;;;;;;20663602;28;20038;-41
2022/06/04 04:58:23;;;;;;;4.50;1.42;;;13.40;99.90;;;;;;20691944;28;20045;-41
2022/06/04 05:08:24;;;;;;;2.83;1.10;;;13.50;99.90;;;;;;20701256;28;20041;-41
2022/06/04 05:18:25;;;;;;;5.35;1.55;;;13.70;99.90;;;;;;20702143;28;20949;-40
2022/06/04 05:28:26;;;;;;;3.03;1.23;;;13.60;99.90;;;;;;20703281;28;20042;-41
2022/06/04 05:38:27;;;;;;;2.15;1.02;;;13.80;99.90;;;;;;20714497;28;20049;-41
2022/06/04 05:48:28;;;;;;;3.72;1.98;;;13.90;99.90;;;;;;20698694;28;20405;-41
2022/06/04 05:58:29;;;;;;;1.98;1.10;;;14.20;99.90;;;;;;20686982;28;20067;-41
2022/06/04 06:08:30;;;;;;;4.15;1.27;;;14.60;99.90;;;;;;20697014;28;20051;-41
2022/06/04 06:18:32;;;;;;;3.00;0.98;;;14.70;99.90;;;;;;20637230;28;20045;-41
2022/06/04 06:28:35;;;;;;;2.60;1.23;;;14.70;99.90;;;;;;20692187;28;20048;-41
2022/06/04 06:38:37;;;;;;;2.30;0.95;;;14.60;99.90;;;;;;20713814;28;20049;-41
2022/06/04 06:48:41;;;;;;;2.67;1.20;;;14.70;99.90;;;;;;20662267;28;20409;-41
2022/06/04 06:58:42;;;;;;;2.22;1.00;;;14.70;99.90;;;;;;20690916;28;20056;-40
2022/06/04 07:08:43;;;;;;;2.20;0.93;;;14.80;99.90;;;;;;20681723;28;20047;-41
2022/06/04 07:18:44;;;;;;;2.03;0.73;;;14.90;99.90;;;;;;20690777;28;20042;-40
2022/06/04 07:28:46;;;;;;;1.88;0.93;;;14.90;99.90;;;;;;20634055;28;20045;-40
2022/06/04 07:38:47;;;;;;;2.13;0.60;;;14.90;99.90;;;;;;20641690;28;21125;-41
2022/06/04 07:48:49;;;;;;;1.98;1.27;;;14.90;99.90;;;;;;20662676;28;20046;-41
2022/06/04 07:58:53;;;;;;;2.75;0.90;;;15.10;99.90;;;;;;20660203;28;20035;-41
2022/06/04 08:08:58;;;;;;;2.90;1.17;;;15.20;99.90;;;;;;20653675;28;20050;-41
2022/06/04 08:18:59;;;;;;;3.53;0.95;;;15.60;99.90;;;;;;20646571;28;20471;-41
2022/06/04 08:29:00;;;;;;;2.47;0.80;;;16.40;99.90;;;;;;20663359;28;20069;-41
2022/06/04 08:39:02;;;;;;;1.35;0.43;;;16.80;99.90;;;;;;20653710;28;20046;-41
2022/06/04 08:49:12;;;;;;;2.35;0.70;;;16.80;99.90;;;;;;20659264;28;20057;-41
2022/06/04 08:59:19;;;;;;;2.75;1.42;;;16.80;99.90;;;;;;20647957;28;20130;-41
2022/06/04 09:09:43;;;;;;;0.93;0.43;;;17.00;99.90;;;;;;20652086;28;20050;-41
2022/06/04 09:19:50;;;;;;;3.10;1.73;;;17.50;99.90;;;;;;20647942;28;20033;-41
2022/06/04 09:30:15;;;;;;;1.73;0.90;;;18.10;99.90;;;;;;20654928;28;20500;-41
2022/06/04 09:40:31;;;;;;;2.08;0.90;;;18.70;99.90;;;;;;20676990;28;20045;-41
2022/06/04 09:50:37;;;;;;;1.02;0.52;;;18.80;99.90;;;;;;20646747;28;20693;-41
2022/06/04 10:00:39;;;;;;;1.27;0.85;;;19.00;99.90;;;;;;20669956;28;20046;-41
2022/06/04 10:10:44;;;;;;;1.48;0.75;;;19.20;99.90;;;;;;20665007;28;20042;-41
2022/06/04 10:20:58;;;;;;;1.10;0.45;;;19.40;99.90;;;;;;20727052;28;20639;-41
2022/06/04 10:31:04;;;;;;;1.35;0.50;;;19.60;99.90;;;;;;20739270;28;20405;-41
2022/06/04 10:41:26;;;;;;;1.67;0.80;;;19.70;99.90;;;;;;20732516;28;20297;-41
2022/06/04 10:52:04;;;;;;;3.40;0.80;;;19.60;99.90;;;;;;20698083;28;20052;-41
2022/06/04 11:02:21;;;;;;;1.67;0.50;;;19.60;99.90;;;;;;20739119;28;20564;-41
2022/06/04 11:12:30;;;;;;;1.08;0.55;;;19.60;99.90;;;;;;20742431;28;20125;-41
2022/06/04 11:22:57;;;;;;;2.03;0.85;;;19.60;99.90;;;;;;20738642;28;20048;-41
2022/06/04 11:33:08;;;;;;;1.63;0.83;;;19.70;99.90;;;;;;20739215;28;20302;-41
2022/06/04 11:43:30;;;;;;;1.58;0.90;;;19.90;99.90;;;;;;20743523;28;20056;-41
2022/06/04 11:53:38;;;;;;;2.25;0.90;;;19.90;99.90;;;;;;20729521;28;21562;-41
2022/06/04 12:03:49;;;;;;;12.60;0.85;;;19.80;99.90;;;;;;20735391;28;20401;-41
2022/06/04 12:14:00;;;;;;;1.27;0.50;;;19.50;99.90;;;;;;20744952;28;20053;-41
2022/06/04 12:24:16;;;;;;;1.85;1.05;;;19.40;99.90;;;;;;20693987;28;20038;-41
2022/06/04 12:34:32;;;;;;;1.20;0.70;;;19.30;99.90;;;;;;20730045;28;20526;-41
2022/06/04 12:44:34;;;;;;;2.20;1.02;;;19.00;99.90;;;;;;20745639;28;20044;-41
2022/06/04 12:54:47;;;;;;;1.20;0.60;;;18.80;99.90;;;;;;20737398;28;20042;-41
2022/06/04 13:04:49;;;;;;;3.40;0.70;;;18.70;99.90;;;;;;20720224;28;20042;-41
2022/06/04 13:15:09;;;;;;;2.13;1.00;;;18.70;99.90;;;;;;20721485;28;20398;-41
2022/06/04 13:25:17;;;;;;;2.80;0.98;;;19.20;99.90;;;;;;20734368;28;20394;-41
2022/06/04 13:35:22;;;;;;;4.43;1.42;;;20.00;99.90;;;;;;20715494;28;20129;-41
2022/06/04 13:45:33;;;;;;;3.80;1.10;;;20.50;99.90;;;;;;20728207;28;20064;-41
2022/06/04 13:55:45;;;;;;;1.98;0.73;;;20.60;99.90;;;;;;20728627;28;21393;-41
2022/06/04 14:05:48;;;;;;;2.78;1.00;;;20.60;99.90;;;;;;20665393;28;20116;-41
2022/06/04 14:16:03;;;;;;;3.65;1.02;;;20.80;99.90;;;;;;20641222;28;20046;-41
2022/06/04 14:26:41;;;;;;;1.77;0.80;;;21.20;99.90;;;;;;20650629;28;20057;-41
2022/06/04 14:36:55;;;;;;;2.03;0.95;;;21.60;99.90;;;;;;20669412;28;20124;-41
2022/06/04 14:47:01;;;;;;;3.05;1.65;;;21.80;99.90;;;;;;20638066;28;20526;-41
2022/06/04 14:57:16;;;;;;;1.53;0.83;;;21.90;99.90;;;;;;20641664;28;20544;-41
2022/06/04 15:07:35;;;;;;;1.85;0.65;;;22.20;99.90;;;;;;20644972;28;20034;-41
2022/06/04 15:18:04;;;;;;;0.80;0.47;;;22.20;99.90;;;;;;20642638;28;20060;-41
2022/06/04 15:38:48;;;;;;;2.50;1.23;;;22.30;99.90;;;;;;20652610;28;20606;-41
2022/06/04 15:49:08;;;;;;;1.27;0.73;;;22.30;99.90;;;;;;20645953;28;20035;-41
2022/06/04 15:59:19;;;;;;;1.60;0.73;;;22.20;99.90;;;;;;20705616;28;20049;-41
2022/06/04 16:09:20;;;;;;;1.70;0.82;;;22.20;99.90;;;;;;20746141;28;21042;-41
2022/06/04 16:19:41;;;;;;;3.03;0.52;;;22.40;99.90;;;;;;20738228;28;20050;-41
2022/06/04 16:29:42;;;;;;;2.28;1.20;;;22.20;99.90;;;;;;20745927;28;20654;-41
2022/06/04 16:39:47;;;;;;;1.77;0.93;;;22.20;99.90;;;;;;20741921;28;20029;-41
2022/06/04 16:49:49;;;;;;;1.70;0.60;;;22.20;99.90;;;;;;20650650;28;20043;-41
2022/06/04 16:59:50;;;;;;;2.65;1.23;;;22.10;99.90;;;;;;20644646;28;20057;-41
2022/06/04 17:10:10;;;;;;;2.83;0.80;;;22.10;99.90;;;;;;20649428;28;20042;-41
2022/06/04 17:20:49;;;;;;;1.83;1.15;;;21.90;99.90;;;;;;20663735;28;20057;-41
2022/06/04 17:31:14;;;;;;;2.60;0.85;;;22.00;99.90;;;;;;20649697;28;20046;-41
2022/06/04 17:41:24;;;;;;;1.08;0.68;;;21.80;99.90;;;;;;20660826;28;20053;-41
2022/06/04 17:51:29;;;;;;;2.40;1.20;;;21.70;99.90;;;;;;20660949;28;20034;-41
2022/06/04 18:01:31;;;;;;;2.42;0.93;;;21.70;99.90;;;;;;20639853;28;20299;-41
2022/06/04 18:11:32;;;;;;;1.92;1.00;;;21.60;99.90;;;;;;20641046;28;20046;-41
2022/06/04 18:21:35;;;;;;;1.63;0.80;;;21.50;99.90;;;;;;20636649;28;20034;-41
2022/06/04 18:31:36;;;;;;;3.67;1.00;;;21.40;99.90;;;;;;20731878;28;20049;-41
2022/06/04 18:41:40;;;;;;;2.55;0.82;;;21.30;99.90;;;;;;20716061;28;20409;-41
2022/06/04 19:02:03;;;;;;;2.65;1.17;;;21.00;99.90;;;;;;20659251;28;20045;-41
2022/06/04 19:32:43;;;;;;;1.90;0.63;;;20.60;99.90;;;;;;20647086;28;21559;-41
2022/06/04 19:42:44;;;;;;;1.85;0.80;;;20.40;99.90;;;;;;20645594;28;20410;-41
2022/06/04 20:03:05;;;;;;;1.45;0.80;;;20.00;99.90;;;;;;20654563;28;20069;-41
2022/06/04 20:13:06;;;;;;;1.42;0.80;;;19.80;99.90;;;;;;20659567;28;20042;-41
2022/06/04 20:23:10;;;;;;;2.10;1.17;;;19.50;99.90;;;;;;20667025;28;20045;-41
2022/06/04 20:33:11;;;;;;;1.80;0.90;;;19.40;99.90;;;;;;20646004;28;21647;-41
2022/06/04 20:43:14;;;;;;;4.43;1.50;;;19.10;99.90;;;;;;20643517;28;20038;-41
2022/06/04 20:53:16;;;;;;;2.38;1.15;;;18.90;99.90;;;;;;20654655;28;20061;-41
2022/06/04 21:03:17;;;;;;;2.97;1.42;;;18.70;99.90;;;;;;20637162;28;20356;-41
2022/06/04 21:13:18;;;;;;;2.22;1.10;;;18.50;99.90;;;;;;20639815;28;20046;-41
2022/06/04 21:23:19;;;;;;;2.80;1.13;;;18.20;99.90;;;;;;20641953;28;20664;-41
2022/06/04 21:33:20;;;;;;;1.98;1.17;;;18.10;99.90;;;;;;20647794;28;20048;-41
2022/06/04 21:43:21;;;;;;;2.15;1.20;;;17.80;99.90;;;;;;20651929;28;20478;-41
2022/06/04 21:53:23;;;;;;;2.08;0.75;;;17.60;99.90;;;;;;20683005;28;20149;-41
2022/06/04 22:03:24;;;;;;;1.80;1.00;;;17.50;99.90;;;;;;20719726;28;20045;-41
2022/06/04 22:13:26;;;;;;;2.42;1.33;;;17.40;99.90;;;;;;20718880;28;20077;-41
2022/06/04 22:23:27;;;;;;;1.67;0.90;;;17.10;99.90;;;;;;20713229;28;20170;-41
2022/06/04 22:33:29;;;;;;;4.05;1.05;;;17.00;99.90;;;;;;20737819;28;20435;-41
2022/06/04 22:43:39;;;;;;;3.90;0.88;;;16.80;99.90;;;;;;20690966;28;20050;-41
2022/06/04 22:53:40;;;;;;;3.25;1.70;;;16.70;99.90;;;;;;20634010;28;20042;-41
2022/06/04 23:03:41;;;;;;;3.05;1.00;;;16.70;99.90;;;;;;20682306;28;20062;-41
2022/06/04 23:24:04;;;;;;;4.97;1.55;;;16.30;99.90;;;;;;20769984;28;20405;-41
2022/06/04 23:34:05;;;;;;;3.97;1.50;;;16.20;99.90;;;;;;20783534;28;20500;-41
2022/06/04 23:44:08;;;;;;;2.85;1.20;;;16.00;99.90;;;;;;20783058;28;20161;-41
2022/06/04 23:54:09;;;;;;;2.40;1.15;;;15.90;99.90;;;;;;20726988;28;20042;-41
